createdAt,value
2022-09-06T00:00:24.229Z,74.74
2022-09-06T00:04:04.006Z,74.53
2022-09-06T00:07:32.454Z,75.02
2022-09-06T00:11:11.413Z,75.59
2022-09-06T00:14:43.518Z,76.67
2022-09-06T00:18:24.319Z,77.65
2022-09-06T00:21:51.269Z,78.14
2022-09-06T00:25:33.403Z,78.05
2022-09-06T00:29:02.081Z,77.98
2022-09-06T00:32:35.328Z,78.11
2022-09-06T00:36:05.261Z,78.39
2022-09-06T00:39:46.822Z,80.29
2022-09-06T00:43:13.140Z,79.98
2022-09-06T00:46:55.669Z,79.31
2022-09-06T00:50:22.905Z,79.68
2022-09-06T00:54:07.786Z,79.08
2022-09-06T00:57:35.092Z,79.14
2022-09-06T01:01:16.340Z,80.31
2022-09-06T01:04:48.542Z,79.87
2022-09-06T01:08:38.338Z,79.72
2022-09-06T01:12:26.691Z,79.72
2022-09-06T01:16:13.825Z,80.03
2022-09-06T01:20:25.187Z,79.98
2022-09-06T01:24:26.061Z,80.58
2022-09-06T01:28:30.394Z,80.08
2022-09-06T01:32:21.733Z,80.00
2022-09-06T01:35:58.626Z,80.16
2022-09-06T01:39:38.046Z,79.37
2022-09-06T01:43:11.802Z,79.70
2022-09-06T01:46:51.440Z,78.71
2022-09-06T01:50:39.151Z,78.76
2022-09-06T01:54:54.876Z,79.04
2022-09-06T01:58:52.090Z,78.72
2022-09-06T02:02:50.511Z,78.19
2022-09-06T02:06:35.242Z,78.46
2022-09-06T02:10:24.132Z,79.18
2022-09-06T02:14:11.147Z,78.14
2022-09-06T02:17:44.801Z,78.84
2022-09-06T02:21:30.325Z,78.94
2022-09-06T02:25:02.806Z,80.25
2022-09-06T02:28:42.396Z,80.77
2022-09-06T02:32:18.552Z,80.70
2022-09-06T02:36:06.275Z,81.26
2022-09-06T02:39:32.280Z,80.79
2022-09-06T02:43:13.693Z,81.55
2022-09-06T02:46:48.197Z,81.46
2022-09-06T02:50:30.911Z,80.94
2022-09-06T02:53:57.316Z,80.30
2022-09-06T02:57:41.230Z,79.78
2022-09-06T03:01:07.614Z,79.96
2022-09-06T03:04:47.025Z,80.01
2022-09-06T03:08:21.874Z,78.95
2022-09-06T03:11:51.302Z,78.27
2022-09-06T03:15:18.267Z,79.43
2022-09-06T03:18:56.895Z,79.06
2022-09-06T03:22:27.672Z,79.87
2022-09-06T03:26:13.787Z,80.05
2022-09-06T03:29:40.226Z,78.83
2022-09-06T03:33:29.813Z,77.38
2022-09-06T03:36:56.884Z,77.01
2022-09-06T03:40:37.999Z,78.55
2022-09-06T03:44:04.918Z,78.86
2022-09-06T03:47:42.849Z,79.97
2022-09-06T03:51:09.396Z,80.49
2022-09-06T03:54:49.656Z,80.90
2022-09-06T03:58:19.742Z,81.96
2022-09-06T04:02:03.601Z,81.91
2022-09-06T04:05:37.191Z,81.95
2022-09-06T04:09:04.581Z,82.09
2022-09-06T04:12:35.006Z,81.25
2022-09-06T04:16:01.605Z,81.56
2022-09-06T04:19:31.232Z,82.78
2022-09-06T04:22:57.734Z,82.53
2022-09-06T04:26:36.533Z,83.09
2022-09-06T04:30:05.767Z,78.33
2022-09-06T04:33:36.726Z,80.57
2022-09-06T04:37:03.458Z,81.37
2022-09-06T04:40:36.097Z,79.61
2022-09-06T04:44:20.539Z,78.37
2022-09-06T04:48:02.572Z,77.85
2022-09-06T04:51:48.369Z,75.23
2022-09-06T04:55:15.843Z,74.14
2022-09-06T04:58:47.244Z,71.87
2022-09-06T05:02:18.058Z,70.13
2022-09-06T05:05:46.910Z,69.72
2022-09-06T05:09:13.813Z,71.73
2022-09-06T05:12:51.087Z,70.85
2022-09-06T05:16:20.291Z,72.48
2022-09-06T05:19:49.565Z,69.42
2022-09-06T05:23:29.296Z,71.42
2022-09-06T05:26:59.008Z,69.75
2022-09-06T05:30:30.078Z,70.99
2022-09-06T05:33:57.591Z,69.17
2022-09-06T05:37:30.676Z,68.99
2022-09-06T05:40:57.491Z,66.38
2022-09-06T05:44:27.680Z,66.45
2022-09-06T05:47:53.026Z,65.98
2022-09-06T05:51:33.294Z,66.96
2022-09-06T05:54:59.718Z,64.06
2022-09-06T05:58:39.080Z,64.25
2022-09-06T06:02:08.902Z,63.89
2022-09-06T06:05:48.269Z,61.57
2022-09-06T06:09:16.203Z,63.14
2022-09-06T06:12:45.439Z,60.86
2022-09-06T06:16:52.631Z,59.66
2022-09-06T06:24:13.200Z,59.12
2022-09-06T06:27:57.695Z,58.09
2022-09-06T06:31:39.416Z,57.39
2022-09-06T06:35:10.879Z,57.69
2022-09-06T06:38:51.659Z,56.93
2022-09-06T06:42:21.783Z,56.32
2022-09-06T06:45:56.077Z,56.33
2022-09-06T06:49:45.056Z,53.65
2022-09-06T07:01:00.548Z,51.95
2022-09-06T07:05:02.141Z,52.33
2022-09-06T07:08:46.057Z,52.75
2022-09-06T07:12:35.096Z,51.87
2022-09-06T07:16:18.329Z,50.74
2022-09-06T07:20:26.984Z,50.43
2022-09-06T07:24:16.576Z,49.22
2022-09-06T07:28:13.076Z,49.87
2022-09-06T07:35:44.097Z,48.73
2022-09-06T07:39:31.603Z,47.46
2022-09-06T07:43:02.476Z,48.34
2022-09-06T07:46:47.461Z,47.25
2022-09-06T07:54:33.841Z,45.72
2022-09-06T08:01:59.752Z,43.83
2022-09-06T08:09:16.901Z,44.23
2022-09-06T08:13:19.793Z,42.30
2022-09-06T08:49:03.312Z,35.26
2022-09-06T08:53:23.822Z,35.03
2022-09-06T08:57:40.142Z,34.27
2022-09-06T10:03:31.224Z,30.08
2022-09-06T11:05:41.344Z,31.15
2022-09-06T11:09:38.683Z,28.60
2022-09-06T11:13:44.619Z,27.78
2022-09-06T11:17:41.268Z,29.28
2022-09-06T11:21:54.349Z,27.61
2022-09-06T11:25:40.982Z,27.58
2022-09-06T11:29:48.503Z,27.82
2022-09-06T11:33:40.036Z,27.16
2022-09-06T11:37:45.753Z,26.72
2022-09-06T11:41:34.344Z,27.95
2022-09-06T11:45:39.968Z,27.49
2022-09-06T11:49:36.082Z,29.33
2022-09-06T11:53:38.981Z,31.23
2022-09-06T11:57:26.451Z,27.76
2022-09-06T12:01:17.584Z,27.76
2022-09-06T12:05:01.314Z,27.70
2022-09-06T12:08:45.643Z,26.97
2022-09-06T12:12:42.612Z,27.92
2022-09-06T12:16:24.370Z,27.76
2022-09-06T12:20:09.553Z,27.34
2022-09-06T12:23:52.903Z,28.40
2022-09-06T12:27:28.871Z,28.51
2022-09-06T12:31:27.811Z,29.63
2022-09-06T12:38:55.170Z,28.32
2022-09-06T12:42:35.529Z,33.08
2022-09-06T12:46:09.163Z,32.71
2022-09-06T12:50:17.925Z,32.96
2022-09-06T12:54:04.502Z,31.68
2022-09-06T12:57:57.272Z,31.34
2022-09-06T13:02:08.342Z,33.71
2022-09-06T13:06:12.738Z,32.90
2022-09-06T13:10:04.356Z,33.90
2022-09-06T13:13:57.666Z,35.37
2022-09-06T13:17:33.209Z,34.61
2022-09-06T13:21:26.698Z,34.77
2022-09-06T13:25:03.594Z,35.70
2022-09-06T13:28:38.763Z,35.45
2022-09-06T13:32:14.691Z,36.23
2022-09-06T13:36:11.765Z,36.39
2022-09-06T13:39:46.477Z,36.11
2022-09-06T13:43:26.132Z,36.98
2022-09-06T13:46:55.396Z,36.90
2022-09-06T13:50:42.062Z,37.08
2022-09-06T13:54:17.501Z,38.92
2022-09-06T13:58:07.227Z,37.41
2022-09-06T14:01:35.359Z,38.51
2022-09-06T14:05:09.301Z,37.38
2022-09-06T14:09:06.383Z,36.80
2022-09-06T14:12:20.017Z,38.41
2022-09-06T14:15:50.527Z,37.95
2022-09-06T14:19:21.449Z,38.80
2022-09-06T14:23:07.654Z,37.94
2022-09-06T14:26:37.376Z,38.19
2022-09-06T14:30:27.341Z,39.83
2022-09-06T14:33:57.228Z,39.87
2022-09-06T14:37:23.424Z,40.19
2022-09-06T14:40:54.776Z,40.83
2022-09-06T14:44:36.593Z,40.39
2022-09-06T14:48:05.807Z,41.21
2022-09-06T14:51:46.002Z,41.27
2022-09-06T14:55:03.454Z,41.91
2022-09-06T14:58:32.738Z,41.90
2022-09-06T15:02:04.412Z,42.07
2022-09-06T15:05:30.565Z,42.57
2022-09-06T15:09:11.782Z,42.74
2022-09-06T15:12:40.518Z,43.65
2022-09-06T15:16:21.992Z,43.87
2022-09-06T15:19:38.154Z,44.49
2022-09-06T15:23:27.851Z,48.52
2022-09-06T15:26:49.676Z,47.70
2022-09-06T15:30:21.198Z,51.07
2022-09-06T15:33:57.072Z,52.29
2022-09-06T15:37:27.497Z,56.06
2022-09-06T15:41:15.686Z,61.70
2022-09-06T15:44:55.457Z,60.43
2022-09-06T15:48:28.072Z,60.15
2022-09-06T15:52:10.561Z,59.81
2022-09-06T15:55:55.886Z,67.01
2022-09-06T15:59:39.892Z,71.83
2022-09-06T16:03:09.947Z,79.65
2022-09-06T16:06:51.104Z,82.31
2022-09-06T16:10:22.934Z,83.81
2022-09-06T16:14:04.352Z,87.97
2022-09-06T16:17:36.743Z,88.27
2022-09-06T16:21:24.364Z,88.61
2022-09-06T16:24:55.147Z,87.82
2022-09-06T16:28:33.055Z,83.56
2022-09-06T16:32:11.837Z,82.78
2022-09-06T16:35:52.821Z,84.66
2022-09-06T16:39:23.087Z,84.71
2022-09-06T16:42:55.750Z,83.00
2022-09-06T16:46:28.938Z,87.65
2022-09-06T16:50:05.309Z,86.61
2022-09-06T16:53:36.084Z,84.95
2022-09-06T16:57:06.081Z,81.84
2022-09-06T17:00:45.461Z,80.23
2022-09-06T17:04:15.579Z,78.08
2022-09-06T17:07:53.270Z,85.39
2022-09-06T17:11:50.510Z,84.10
2022-09-06T17:15:50.523Z,84.41
2022-09-06T17:19:30.739Z,84.46
2022-09-06T17:23:03.754Z,85.67
2022-09-06T17:26:42.247Z,88.28
2022-09-06T17:30:16.579Z,91.18
2022-09-06T17:34:09.847Z,91.00
2022-09-06T17:37:49.253Z,91.84
2022-09-06T17:41:24.385Z,91.53
2022-09-06T17:45:05.423Z,92.11
2022-09-06T17:48:31.616Z,92.20
2022-09-06T17:52:03.191Z,94.45
2022-09-06T17:55:33.008Z,93.15
2022-09-06T17:59:14.170Z,91.79
2022-09-06T18:02:42.675Z,94.02
2022-09-06T18:06:53.157Z,92.66
2022-09-06T18:10:15.133Z,93.45
2022-09-06T18:14:04.897Z,93.09
2022-09-06T18:17:31.574Z,93.13
2022-09-06T18:21:13.385Z,93.45
2022-09-06T18:24:39.703Z,92.64
2022-09-06T18:28:23.121Z,94.14
2022-09-06T18:32:12.127Z,93.82
2022-09-06T18:35:58.344Z,93.49
2022-09-06T18:39:41.629Z,94.05
2022-09-06T18:46:51.340Z,91.94
2022-09-06T18:50:46.611Z,90.57
2022-09-06T18:58:28.367Z,88.67
2022-09-06T19:02:08.432Z,88.55
2022-09-06T19:09:24.596Z,88.16
2022-09-06T19:16:51.136Z,87.79
2022-09-06T19:20:32.956Z,88.55
2022-09-06T19:27:48.554Z,88.87
2022-09-06T19:35:19.841Z,89.73
2022-09-06T19:39:23.065Z,89.39
2022-09-06T19:43:13.695Z,89.59
2022-09-06T19:51:10.358Z,91.90
2022-09-06T19:54:39.732Z,92.09
2022-09-06T19:58:25.627Z,91.44
2022-09-06T20:02:04.408Z,91.55
2022-09-06T20:13:30.811Z,92.67
2022-09-06T20:17:32.637Z,92.46
2022-09-06T20:20:47.219Z,93.57
2022-09-06T20:24:23.315Z,93.97
2022-09-06T20:35:37.583Z,92.49
2022-09-06T20:39:19.152Z,92.64
2022-09-06T20:43:03.475Z,92.62
2022-09-06T20:46:54.486Z,91.72
2022-09-06T20:50:22.212Z,92.66
2022-09-06T20:54:02.314Z,92.34
2022-09-06T20:57:33.176Z,92.18
2022-09-06T21:01:22.545Z,93.00
2022-09-06T21:04:53.534Z,93.94
2022-09-06T21:08:42.002Z,94.68
2022-09-06T21:12:07.846Z,95.50
2022-09-06T21:15:50.052Z,95.81
2022-09-06T21:19:17.901Z,95.35
2022-09-06T21:23:01.409Z,93.86
2022-09-06T21:26:28.015Z,93.30
2022-09-06T21:29:59.648Z,93.72
2022-09-06T21:33:28.944Z,94.47
2022-09-06T21:37:14.433Z,93.25
2022-09-06T21:40:44.509Z,93.91
2022-09-06T21:44:17.674Z,95.15
2022-09-06T21:47:52.320Z,95.39
2022-09-06T21:51:27.348Z,95.82
2022-09-06T21:55:10.343Z,96.54
2022-09-06T21:58:39.869Z,96.58
2022-09-06T22:02:23.238Z,95.20
2022-09-06T22:05:52.864Z,95.10
2022-09-06T22:09:27.662Z,94.71
2022-09-06T22:13:09.185Z,94.95
2022-09-06T22:16:25.349Z,94.76
2022-09-06T22:20:10.535Z,94.68
2022-09-06T22:23:51.732Z,94.27
2022-09-06T22:27:30.200Z,94.13
2022-09-06T22:30:57.967Z,93.68
2022-09-06T22:34:44.585Z,93.03
2022-09-06T22:38:13.694Z,91.91
2022-09-06T22:41:53.861Z,92.02
2022-09-06T22:45:20.641Z,91.56
2022-09-06T22:48:52.417Z,91.39
2022-09-06T22:52:20.000Z,90.68
2022-09-06T22:55:56.618Z,90.08
2022-09-06T22:59:26.857Z,90.07
2022-09-06T23:02:59.115Z,90.26
2022-09-06T23:06:32.214Z,90.14
2022-09-06T23:10:02.069Z,90.67
2022-09-06T23:13:28.745Z,91.00
2022-09-06T23:16:57.909Z,91.06
2022-09-06T23:20:38.354Z,91.97
2022-09-06T23:24:15.145Z,93.34
2022-09-06T23:28:07.875Z,94.38
2022-09-06T23:31:40.491Z,95.12
2022-09-06T23:35:26.680Z,95.66
2022-09-06T23:39:01.507Z,96.33
2022-09-06T23:42:35.211Z,98.35
2022-09-06T23:46:07.246Z,98.42
2022-09-06T23:49:39.470Z,98.51
2022-09-06T23:53:07.818Z,98.51
2022-09-06T23:56:54.500Z,98.67
